sensor_id;sensor_type;location;lat;lon;timestamp;temperature;humidity
20524;DHT22;10420;48.542;12.270;2023-02-28T00:02:04;-2.10;99.90
20524;DHT22;10420;48.542;12.270;2023-02-28T00:07:04;-2.20;99.90
20524;DHT22;10420;48.542;12.270;2023-02-28T00:12:05;-2.20;99.90
20524;DHT22;10420;48.542;12.270;2023-02-28T00:17:10;-2.20;99.90
20524;DHT22;10420;48.542;12.270;2023-02-28T00:22:11;-2.30;99.90
20524;DHT22;10420;48.542;12.270;2023-02-28T00:27:11;-2.20;99.90
20524;DHT22;10420;48.542;12.270;2023-02-28T00:32:12;-2.20;99.90
20524;DHT22;10420;48.542;12.270;2023-02-28T00:37:13;-2.30;99.90
20524;DHT22;10420;48.542;12.270;2023-02-28T00:42:14;-2.30;99.90
20524;DHT22;10420;48.542;12.270;2023-02-28T00:47:15;-2.40;99.90
20524;DHT22;10420;48.542;12.270;2023-02-28T00:52:16;-2.30;99.90
20524;DHT22;10420;48.542;12.270;2023-02-28T00:57:16;-2.40;99.90
20524;DHT22;10420;48.542;12.270;2023-02-28T01:02:17;-2.40;99.90
20524;DHT22;10420;48.542;12.270;2023-02-28T01:07:18;-2.50;99.90
20524;DHT22;10420;48.542;12.270;2023-02-28T01:12:19;-2.50;99.90
20524;DHT22;10420;48.542;12.270;2023-02-28T01:17:19;-2.60;99.90
20524;DHT22;10420;48.542;12.270;2023-02-28T01:22:20;-2.60;99.90
20524;DHT22;10420;48.542;12.270;2023-02-28T01:27:21;-2.50;99.90
20524;DHT22;10420;48.542;12.270;2023-02-28T01:32:21;-2.60;99.90
20524;DHT22;10420;48.542;12.270;2023-02-28T01:37:22;-2.60;99.90
20524;DHT22;10420;48.542;12.270;2023-02-28T01:42:23;-2.70;99.90
20524;DHT22;10420;48.542;12.270;2023-02-28T01:47:25;-2.70;99.90
20524;DHT22;10420;48.542;12.270;2023-02-28T01:52:28;-2.70;99.90
20524;DHT22;10420;48.542;12.270;2023-02-28T01:57:34;-2.70;99.90
20524;DHT22;10420;48.542;12.270;2023-02-28T02:02:39;-2.70;99.90
20524;DHT22;10420;48.542;12.270;2023-02-28T02:07:44;-2.80;99.90
20524;DHT22;10420;48.542;12.270;2023-02-28T02:18:13;-2.90;99.90
20524;DHT22;10420;48.542;12.270;2023-02-28T02:34:38;-2.80;99.90
20524;DHT22;10420;48.542;12.270;2023-02-28T02:45:17;-2.80;99.90
20524;DHT22;10420;48.542;12.270;2023-02-28T02:50:24;-2.80;99.90
20524;DHT22;10420;48.542;12.270;2023-02-28T02:55:27;-2.80;99.90
20524;DHT22;10420;48.542;12.270;2023-02-28T03:00:32;-2.90;99.90
20524;DHT22;10420;48.542;12.270;2023-02-28T03:05:41;-2.90;99.90
20524;DHT22;10420;48.542;12.270;2023-02-28T03:10:45;-2.80;99.90
20524;DHT22;10420;48.542;12.270;2023-02-28T03:21:18;-2.80;99.90
20524;DHT22;10420;48.542;12.270;2023-02-28T03:26:23;-2.90;99.90
20524;DHT22;10420;48.542;12.270;2023-02-28T03:31:35;-2.90;99.90
20524;DHT22;10420;48.542;12.270;2023-02-28T03:36:47;-2.80;99.90
20524;DHT22;10420;48.542;12.270;2023-02-28T03:42:00;-2.90;99.90
20524;DHT22;10420;48.542;12.270;2023-02-28T03:52:36;-2.80;99.90
20524;DHT22;10420;48.542;12.270;2023-02-28T04:02:57;-2.90;99.90
20524;DHT22;10420;48.542;12.270;2023-02-28T04:08:06;-2.80;99.90
20524;DHT22;10420;48.542;12.270;2023-02-28T04:13:06;-2.80;99.90
20524;DHT22;10420;48.542;12.270;2023-02-28T04:18:08;-2.90;99.90
20524;DHT22;10420;48.542;12.270;2023-02-28T04:23:08;-3.00;99.90
20524;DHT22;10420;48.542;12.270;2023-02-28T04:28:09;-3.00;99.90
20524;DHT22;10420;48.542;12.270;2023-02-28T04:33:10;-2.90;99.90
20524;DHT22;10420;48.542;12.270;2023-02-28T04:38:10;-2.90;99.90
20524;DHT22;10420;48.542;12.270;2023-02-28T04:43:11;-2.80;99.90
20524;DHT22;10420;48.542;12.270;2023-02-28T04:48:11;-2.90;99.90
20524;DHT22;10420;48.542;12.270;2023-02-28T04:53:12;-2.90;99.90
20524;DHT22;10420;48.542;12.270;2023-02-28T04:58:13;-3.00;99.90
20524;DHT22;10420;48.542;12.270;2023-02-28T05:03:14;-2.90;99.90
20524;DHT22;10420;48.542;12.270;2023-02-28T05:08:15;-3.10;99.90
20524;DHT22;10420;48.542;12.270;2023-02-28T05:13:15;-3.10;99.90
20524;DHT22;10420;48.542;12.270;2023-02-28T05:18:16;-3.00;99.90
20524;DHT22;10420;48.542;12.270;2023-02-28T05:23:17;-2.90;99.90
20524;DHT22;10420;48.542;12.270;2023-02-28T05:28:20;-3.00;99.90
20524;DHT22;10420;48.542;12.270;2023-02-28T05:33:21;-2.90;99.90
20524;DHT22;10420;48.542;12.270;2023-02-28T05:38:21;-3.00;99.90
20524;DHT22;10420;48.542;12.270;2023-02-28T05:43:23;-3.00;99.90
20524;DHT22;10420;48.542;12.270;2023-02-28T05:48:23;-2.90;99.90
20524;DHT22;10420;48.542;12.270;2023-02-28T05:53:24;-3.00;99.90
20524;DHT22;10420;48.542;12.270;2023-02-28T05:58:25;-3.00;99.90
20524;DHT22;10420;48.542;12.270;2023-02-28T06:03:29;-2.90;99.90
20524;DHT22;10420;48.542;12.270;2023-02-28T06:08:30;-2.80;99.90
20524;DHT22;10420;48.542;12.270;2023-02-28T06:13:30;-2.80;99.90
20524;DHT22;10420;48.542;12.270;2023-02-28T06:18:31;-2.70;99.90
20524;DHT22;10420;48.542;12.270;2023-02-28T06:23:31;-2.70;99.90
20524;DHT22;10420;48.542;12.270;2023-02-28T06:28:32;-2.70;99.90
20524;DHT22;10420;48.542;12.270;2023-02-28T06:33:33;-2.40;99.90
20524;DHT22;10420;48.542;12.270;2023-02-28T06:38:34;-1.80;99.90
20524;DHT22;10420;48.542;12.270;2023-02-28T06:43:38;-2.00;99.90
20524;DHT22;10420;48.542;12.270;2023-02-28T06:48:40;-2.20;99.90
20524;DHT22;10420;48.542;12.270;2023-02-28T06:53:41;-2.20;99.90
20524;DHT22;10420;48.542;12.270;2023-02-28T06:58:42;-2.10;99.90
20524;DHT22;10420;48.542;12.270;2023-02-28T07:03:42;-1.90;99.90
20524;DHT22;10420;48.542;12.270;2023-02-28T07:08:43;-1.90;99.90
20524;DHT22;10420;48.542;12.270;2023-02-28T07:13:43;-1.80;99.90
20524;DHT22;10420;48.542;12.270;2023-02-28T07:18:44;-1.70;99.90
20524;DHT22;10420;48.542;12.270;2023-02-28T07:23:45;-1.50;99.90
20524;DHT22;10420;48.542;12.270;2023-02-28T07:28:47;-1.60;99.90
20524;DHT22;10420;48.542;12.270;2023-02-28T07:33:47;-1.40;99.90
20524;DHT22;10420;48.542;12.270;2023-02-28T07:38:48;-1.30;99.90
20524;DHT22;10420;48.542;12.270;2023-02-28T07:43:52;-1.10;99.90
20524;DHT22;10420;48.542;12.270;2023-02-28T07:48:53;-1.20;99.90
20524;DHT22;10420;48.542;12.270;2023-02-28T07:53:56;-1.10;99.90
20524;DHT22;10420;48.542;12.270;2023-02-28T07:58:56;-1.00;99.90
20524;DHT22;10420;48.542;12.270;2023-02-28T08:03:57;-0.80;99.90
20524;DHT22;10420;48.542;12.270;2023-02-28T08:08:57;-0.80;99.90
20524;DHT22;10420;48.542;12.270;2023-02-28T08:13:58;-0.60;99.90
20524;DHT22;10420;48.542;12.270;2023-02-28T08:18:59;-0.40;99.90
20524;DHT22;10420;48.542;12.270;2023-02-28T08:23:59;-0.40;99.90
20524;DHT22;10420;48.542;12.270;2023-02-28T08:29:00;-0.30;99.90
20524;DHT22;10420;48.542;12.270;2023-02-28T08:34:13;0.00;99.90
20524;DHT22;10420;48.542;12.270;2023-02-28T08:39:13;0.00;99.90
20524;DHT22;10420;48.542;12.270;2023-02-28T08:44:14;0.20;99.90
20524;DHT22;10420;48.542;12.270;2023-02-28T08:49:15;0.10;99.90
20524;DHT22;10420;48.542;12.270;2023-02-28T08:54:16;0.10;99.90
20524;DHT22;10420;48.542;12.270;2023-02-28T08:59:19;0.30;99.90
20524;DHT22;10420;48.542;12.270;2023-02-28T09:04:20;0.30;99.90
20524;DHT22;10420;48.542;12.270;2023-02-28T09:09:21;0.30;99.90
20524;DHT22;10420;48.542;12.270;2023-02-28T09:14:22;0.60;99.90
20524;DHT22;10420;48.542;12.270;2023-02-28T09:19:22;0.70;99.90
20524;DHT22;10420;48.542;12.270;2023-02-28T09:24:23;0.60;99.90
20524;DHT22;10420;48.542;12.270;2023-02-28T09:29:24;0.80;99.90
20524;DHT22;10420;48.542;12.270;2023-02-28T09:34:25;5.70;99.90
20524;DHT22;10420;48.542;12.270;2023-02-28T09:39:26;7.30;99.90
20524;DHT22;10420;48.542;12.270;2023-02-28T09:44:33;7.60;99.90
20524;DHT22;10420;48.542;12.270;2023-02-28T09:49:40;7.90;99.90
20524;DHT22;10420;48.542;12.270;2023-02-28T09:54:42;10.00;99.90
20524;DHT22;10420;48.542;12.270;2023-02-28T09:59:59;9.80;99.90
20524;DHT22;10420;48.542;12.270;2023-02-28T10:05:10;9.20;99.90
20524;DHT22;10420;48.542;12.270;2023-02-28T10:10:28;10.30;99.90
20524;DHT22;10420;48.542;12.270;2023-02-28T10:15:32;8.80;99.90
20524;DHT22;10420;48.542;12.270;2023-02-28T10:20:37;10.20;99.90
20524;DHT22;10420;48.542;12.270;2023-02-28T10:25:39;10.40;99.50
20524;DHT22;10420;48.542;12.270;2023-02-28T10:30:43;10.10;99.00
20524;DHT22;10420;48.542;12.270;2023-02-28T10:35:45;9.90;99.90
20524;DHT22;10420;48.542;12.270;2023-02-28T10:40:46;10.00;99.90
20524;DHT22;10420;48.542;12.270;2023-02-28T10:45:56;11.40;96.70
20524;DHT22;10420;48.542;12.270;2023-02-28T10:50:57;10.20;99.90
20524;DHT22;10420;48.542;12.270;2023-02-28T10:56:03;9.20;99.90
20524;DHT22;10420;48.542;12.270;2023-02-28T11:01:04;8.30;99.90
20524;DHT22;10420;48.542;12.270;2023-02-28T11:06:07;5.10;99.90
20524;DHT22;10420;48.542;12.270;2023-02-28T11:11:09;4.80;99.90
20524;DHT22;10420;48.542;12.270;2023-02-28T11:16:11;3.90;99.90
20524;DHT22;10420;48.542;12.270;2023-02-28T11:21:22;4.00;99.90
20524;DHT22;10420;48.542;12.270;2023-02-28T11:26:38;4.10;99.90
20524;DHT22;10420;48.542;12.270;2023-02-28T11:31:39;4.00;99.90
20524;DHT22;10420;48.542;12.270;2023-02-28T11:36:40;4.40;99.90
20524;DHT22;10420;48.542;12.270;2023-02-28T11:47:30;4.80;99.90
20524;DHT22;10420;48.542;12.270;2023-02-28T11:52:57;4.30;99.90
20524;DHT22;10420;48.542;12.270;2023-02-28T12:03:43;4.30;99.90
20524;DHT22;10420;48.542;12.270;2023-02-28T12:35:18;4.10;99.90
20524;DHT22;10420;48.542;12.270;2023-02-28T12:40:22;3.70;99.90
20524;DHT22;10420;48.542;12.270;2023-02-28T12:50:40;4.30;99.90
20524;DHT22;10420;48.542;12.270;2023-02-28T13:11:58;4.00;99.90
20524;DHT22;10420;48.542;12.270;2023-02-28T13:22:38;4.00;99.90
20524;DHT22;10420;48.542;12.270;2023-02-28T13:27:40;3.80;99.90
20524;DHT22;10420;48.542;12.270;2023-02-28T13:32:42;3.90;99.90
20524;DHT22;10420;48.542;12.270;2023-02-28T13:37:44;4.00;99.90
20524;DHT22;10420;48.542;12.270;2023-02-28T13:42:48;4.10;99.90
20524;DHT22;10420;48.542;12.270;2023-02-28T13:47:58;3.90;99.90
20524;DHT22;10420;48.542;12.270;2023-02-28T13:58:21;4.00;99.90
20524;DHT22;10420;48.542;12.270;2023-02-28T14:08:33;3.90;99.90
20524;DHT22;10420;48.542;12.270;2023-02-28T14:13:43;4.00;99.90
20524;DHT22;10420;48.542;12.270;2023-02-28T14:24:25;4.10;99.90
20524;DHT22;10420;48.542;12.270;2023-02-28T14:29:59;3.90;99.90
20524;DHT22;10420;48.542;12.270;2023-02-28T14:40:35;4.10;99.90
20524;DHT22;10420;48.542;12.270;2023-02-28T14:45:36;4.00;99.90
20524;DHT22;10420;48.542;12.270;2023-02-28T14:50:37;3.90;99.90
20524;DHT22;10420;48.542;12.270;2023-02-28T14:55:44;3.80;99.90
20524;DHT22;10420;48.542;12.270;2023-02-28T15:00:48;3.60;99.90
20524;DHT22;10420;48.542;12.270;2023-02-28T15:05:54;3.40;99.90
20524;DHT22;10420;48.542;12.270;2023-02-28T15:11:01;3.60;99.90
20524;DHT22;10420;48.542;12.270;2023-02-28T15:16:04;3.70;99.90
20524;DHT22;10420;48.542;12.270;2023-02-28T15:21:15;3.50;99.90
20524;DHT22;10420;48.542;12.270;2023-02-28T15:26:20;3.50;99.90
20524;DHT22;10420;48.542;12.270;2023-02-28T15:31:32;3.50;99.90
20524;DHT22;10420;48.542;12.270;2023-02-28T15:36:34;3.50;99.90
20524;DHT22;10420;48.542;12.270;2023-02-28T15:41:38;3.30;99.90
20524;DHT22;10420;48.542;12.270;2023-02-28T15:46:40;3.20;99.90
20524;DHT22;10420;48.542;12.270;2023-02-28T15:51:43;3.00;99.90
20524;DHT22;10420;48.542;12.270;2023-02-28T15:56:46;3.00;99.90
20524;DHT22;10420;48.542;12.270;2023-02-28T16:02:18;3.00;99.90
20524;DHT22;10420;48.542;12.270;2023-02-28T16:07:19;3.00;99.90
20524;DHT22;10420;48.542;12.270;2023-02-28T16:12:25;3.00;99.90
20524;DHT22;10420;48.542;12.270;2023-02-28T16:17:33;2.90;99.90
20524;DHT22;10420;48.542;12.270;2023-02-28T16:22:34;2.80;99.90
20524;DHT22;10420;48.542;12.270;2023-02-28T16:27:36;2.70;99.90
20524;DHT22;10420;48.542;12.270;2023-02-28T16:32:37;2.50;99.90
20524;DHT22;10420;48.542;12.270;2023-02-28T16:37:38;2.40;99.90
20524;DHT22;10420;48.542;12.270;2023-02-28T16:42:40;2.20;99.90
20524;DHT22;10420;48.542;12.270;2023-02-28T16:47:41;2.10;99.90
20524;DHT22;10420;48.542;12.270;2023-02-28T16:52:41;2.00;99.90
20524;DHT22;10420;48.542;12.270;2023-02-28T16:57:43;1.90;99.90
20524;DHT22;10420;48.542;12.270;2023-02-28T17:02:44;1.80;99.90
20524;DHT22;10420;48.542;12.270;2023-02-28T17:07:46;1.80;99.90
20524;DHT22;10420;48.542;12.270;2023-02-28T17:12:47;1.70;99.90
20524;DHT22;10420;48.542;12.270;2023-02-28T17:17:48;1.70;99.90
20524;DHT22;10420;48.542;12.270;2023-02-28T17:22:50;1.60;99.90
20524;DHT22;10420;48.542;12.270;2023-02-28T17:27:51;1.60;99.90
20524;DHT22;10420;48.542;12.270;2023-02-28T17:32:51;1.50;99.90
20524;DHT22;10420;48.542;12.270;2023-02-28T17:37:52;1.50;99.90
20524;DHT22;10420;48.542;12.270;2023-02-28T17:42:53;1.50;99.90
20524;DHT22;10420;48.542;12.270;2023-02-28T17:47:55;1.50;99.90
20524;DHT22;10420;48.542;12.270;2023-02-28T17:52:56;1.50;99.90
20524;DHT22;10420;48.542;12.270;2023-02-28T17:57:56;1.50;99.90
20524;DHT22;10420;48.542;12.270;2023-02-28T18:02:57;1.50;99.90
20524;DHT22;10420;48.542;12.270;2023-02-28T18:07:58;1.60;99.90
20524;DHT22;10420;48.542;12.270;2023-02-28T18:12:59;1.50;99.90
20524;DHT22;10420;48.542;12.270;2023-02-28T18:18:00;1.60;99.90
20524;DHT22;10420;48.542;12.270;2023-02-28T18:23:00;1.60;99.90
20524;DHT22;10420;48.542;12.270;2023-02-28T18:28:01;1.60;99.90
20524;DHT22;10420;48.542;12.270;2023-02-28T18:33:03;1.60;99.90
20524;DHT22;10420;48.542;12.270;2023-02-28T18:38:11;1.60;99.90
20524;DHT22;10420;48.542;12.270;2023-02-28T18:43:12;1.50;99.90
20524;DHT22;10420;48.542;12.270;2023-02-28T18:48:13;1.50;99.90
20524;DHT22;10420;48.542;12.270;2023-02-28T18:53:14;1.50;99.90
20524;DHT22;10420;48.542;12.270;2023-02-28T18:58:15;1.50;99.90
20524;DHT22;10420;48.542;12.270;2023-02-28T19:03:16;1.50;99.90
20524;DHT22;10420;48.542;12.270;2023-02-28T19:08:16;1.50;99.90
20524;DHT22;10420;48.542;12.270;2023-02-28T19:13:17;1.50;99.90
20524;DHT22;10420;48.542;12.270;2023-02-28T19:18:18;1.50;99.90
20524;DHT22;10420;48.542;12.270;2023-02-28T19:23:18;1.50;99.90
20524;DHT22;10420;48.542;12.270;2023-02-28T19:28:19;1.50;99.90
20524;DHT22;10420;48.542;12.270;2023-02-28T19:33:20;1.40;99.90
20524;DHT22;10420;48.542;12.270;2023-02-28T19:38:20;1.40;99.90
20524;DHT22;10420;48.542;12.270;2023-02-28T19:43:21;1.40;99.90
20524;DHT22;10420;48.542;12.270;2023-02-28T19:48:22;1.40;99.90
20524;DHT22;10420;48.542;12.270;2023-02-28T19:53:31;1.40;99.90
20524;DHT22;10420;48.542;12.270;2023-02-28T19:58:32;1.40;99.90
20524;DHT22;10420;48.542;12.270;2023-02-28T20:03:33;1.40;99.90
20524;DHT22;10420;48.542;12.270;2023-02-28T20:08:33;1.40;99.90
20524;DHT22;10420;48.542;12.270;2023-02-28T20:13:34;1.40;99.90
20524;DHT22;10420;48.542;12.270;2023-02-28T20:18:36;1.40;99.90
20524;DHT22;10420;48.542;12.270;2023-02-28T20:23:38;1.30;99.90
20524;DHT22;10420;48.542;12.270;2023-02-28T20:28:39;1.30;99.90
20524;DHT22;10420;48.542;12.270;2023-02-28T20:33:43;1.30;99.90
20524;DHT22;10420;48.542;12.270;2023-02-28T20:38:43;1.40;99.90
20524;DHT22;10420;48.542;12.270;2023-02-28T20:43:44;1.40;99.90
20524;DHT22;10420;48.542;12.270;2023-02-28T20:48:45;1.40;99.90
20524;DHT22;10420;48.542;12.270;2023-02-28T20:53:46;1.30;99.90
20524;DHT22;10420;48.542;12.270;2023-02-28T20:58:47;1.30;99.90
20524;DHT22;10420;48.542;12.270;2023-02-28T21:03:50;1.30;99.90
20524;DHT22;10420;48.542;12.270;2023-02-28T21:08:52;1.30;99.90
20524;DHT22;10420;48.542;12.270;2023-02-28T21:13:53;1.20;99.90
20524;DHT22;10420;48.542;12.270;2023-02-28T21:18:54;1.30;99.90
20524;DHT22;10420;48.542;12.270;2023-02-28T21:23:55;1.20;99.90
20524;DHT22;10420;48.542;12.270;2023-02-28T21:28:57;1.30;99.90
20524;DHT22;10420;48.542;12.270;2023-02-28T21:34:00;1.30;99.90
20524;DHT22;10420;48.542;12.270;2023-02-28T21:39:07;1.30;99.90
20524;DHT22;10420;48.542;12.270;2023-02-28T21:44:09;1.30;99.90
20524;DHT22;10420;48.542;12.270;2023-02-28T21:49:17;1.30;99.90
20524;DHT22;10420;48.542;12.270;2023-02-28T21:54:18;1.20;99.90
20524;DHT22;10420;48.542;12.270;2023-02-28T21:59:19;1.20;99.90
20524;DHT22;10420;48.542;12.270;2023-02-28T22:04:20;1.30;99.90
20524;DHT22;10420;48.542;12.270;2023-02-28T22:09:20;1.30;99.90
20524;DHT22;10420;48.542;12.270;2023-02-28T22:14:21;1.20;99.90
20524;DHT22;10420;48.542;12.270;2023-02-28T22:19:22;1.20;99.90
20524;DHT22;10420;48.542;12.270;2023-02-28T22:24:23;1.20;99.90
20524;DHT22;10420;48.542;12.270;2023-02-28T22:29:24;1.30;99.90
20524;DHT22;10420;48.542;12.270;2023-02-28T22:34:24;1.20;99.90
20524;DHT22;10420;48.542;12.270;2023-02-28T22:39:25;1.30;99.90
20524;DHT22;10420;48.542;12.270;2023-02-28T22:44:26;1.30;99.90
20524;DHT22;10420;48.542;12.270;2023-02-28T22:49:26;1.20;99.90
20524;DHT22;10420;48.542;12.270;2023-02-28T22:54:27;1.30;99.90
20524;DHT22;10420;48.542;12.270;2023-02-28T22:59:28;1.20;99.90
20524;DHT22;10420;48.542;12.270;2023-02-28T23:04:28;1.30;99.90
20524;DHT22;10420;48.542;12.270;2023-02-28T23:09:29;1.30;99.90
20524;DHT22;10420;48.542;12.270;2023-02-28T23:14:30;1.30;99.90
20524;DHT22;10420;48.542;12.270;2023-02-28T23:19:31;1.20;99.90
20524;DHT22;10420;48.542;12.270;2023-02-28T23:24:33;1.20;99.90
20524;DHT22;10420;48.542;12.270;2023-02-28T23:29:35;1.20;99.90
20524;DHT22;10420;48.542;12.270;2023-02-28T23:34:35;1.20;99.90
20524;DHT22;10420;48.542;12.270;2023-02-28T23:39:36;1.20;99.90
20524;DHT22;10420;48.542;12.270;2023-02-28T23:44:37;1.20;99.90
20524;DHT22;10420;48.542;12.270;2023-02-28T23:49:38;1.20;99.90
20524;DHT22;10420;48.542;12.270;2023-02-28T23:54:39;1.20;99.90
20524;DHT22;10420;48.542;12.270;2023-02-28T23:59:39;1.30;99.90
